This demonstration page uses our WeatherBlox Daily Observations layout. Learn more.

39.92423, -83.80882

Hourly Observations for April 9, 2019

Temp ( °F °C ) Dew Point ( °F °C ) Humidity (%) Winds ( mph kmh ) Pressure ( in mb ) Visibility ( mi km ) Precip ( " mm )
12:56 am 00:56 Clear 57 13.9 53 11.7 87 87 SW 6 9 29.8 1009 10 16.0934 0 0
2:56 am 02:56 Clear 54 12.2 53 11.7 97 97 SW 7 11 29.79 1009 10 16.0934 0 0
3:56 am 03:56 Clear 54 12.2 53 11.7 97 97 SW 8 13 29.77 1008 10 16.0934 0 0
4:56 am 04:56 Clear 54 12.2 53 11.7 97 97 SW 9 15 29.75 1008 10 16.0934 0 0
5:56 am 05:56 Clear 53 11.7 52 11.1 96 96 W 8 13 29.75 1008 10 16.0934 0 0
6:56 am 06:56 Clear 54 12.2 52 11.1 93 93 W 9 15 29.77 1008 10 16.0934 0 0
7:56 am 07:56 Sunny 55 12.8 50 10 83 83 WNW 10 17 29.8 1009 10 16.0934 0 0
8:56 am 08:56 Sunny 56 13.3 46 7.8 70 70 NNW 15 24 29.82 1010 10 16.0934 0 0
9:56 am 09:56 Sunny 58 14.4 40 4.4 51 51 NNW 16 26 29.83 1010 10 16.0934 0 0
10:56 am 10:56 Sunny 61 16.1 36 2.2 39 39 NNW 21 33 29.84 1010 10 16.0934 0 0
11:56 am 11:56 Sunny 63 17.2 36 2.2 37 37 N 20 31 29.84 1011 10 16.0934 0 0
12:56 pm 12:56 Sunny 64 17.8 37 2.8 37 37 NW 16 26 29.85 1011 10 16.0934 0 0
1:56 pm 13:56 Sunny 64 17.8 38 3.3 38 38 NW 12 19 29.84 1010 10 16.0934 0 0
2:56 pm 14:56 Sunny 65 18.3 37 2.8 36 36 WNW 14 22 29.83 1010 10 16.0934 0 0
3:56 pm 15:56 Sunny 65 18.3 38 3.3 37 37 NW 12 19 29.81 1010 10 16.0934 0 0
4:56 pm 16:56 Sunny 66 18.9 36 2.2 33 33 WNW 14 22 29.8 1009 10 16.0934 0 0
6:56 pm 18:56 Sunny 63 17.2 36 2.2 37 37 NW 14 22 29.83 1010 10 16.0934 0 0
7:56 pm 19:56 Sunny 59 15 36 2.2 42 42 NNW 9 15 29.83 1010 10 16.0934 0 0
8:56 pm 20:56 Clear 55 12.8 35 1.7 47 47 NNW 7 11 29.85 1011 10 16.0934 0 0
9:56 pm 21:56 Clear 52 11.1 35 1.7 53 53 N 6 9 29.87 1012 10 16.0934 0 0
10:56 pm 22:56 Clear 51 10.6 34 1.1 52 52 E 3 6 29.87 1012 10 16.0934 0 0
11:56 pm 23:56 Clear 50 10 33 0.6 52 52 E 3 6 29.86 1011 10 16.0934 0 0

Powered by AerisWeather